• Join FlightAware (Why Join?)
  • Login
  • US Flag 
12:52AM EDT


 

Airport Tracker/Info


-or-


 

Live Flight TrackerFlight Track Log ✈ UPS1121 ✈ 24-Jun-2013 ✈ KBDL - KPHL

Flight Track Log - Related Links

Times and Time Zones

All times are in EDT time to prevent confusion due to time zone crossing. See the UPS1121 flight status page for this flight to view local times or setup timezone preferences in your user account.

Time Position Orientation Groundspeed Altitude Reporting Facility
EDT Latitude Longitude Course Direction KTS MPH feet Rate Location/Type
10:17PM 41.9436 -72.6997 36° Northeast 152 175 1,300  Level Boston Center
10:18PM 41.9772 -72.6664 36° Northeast 216 249 3,700 2,280 Climbing Boston Center
10:18PM 41.9375 -72.6186 138° Southeast 233 268 5,500 2,760 Climbing Boston Center
10:19PM 41.8583 -72.5739 157° South 264 304 9,000 2,940 Climbing Boston Center
10:20PM 41.7897 -72.5292 154° Southeast 299 344 11,400 2,460 Climbing Boston Center
10:21PM 41.6939 -72.4678 154° Southeast 343 395 14,000 1,260 Climbing Boston Center
10:27PM 41.1320 -72.5250 154° Southeast 386 444 20,000 960 Climbing FlightAware
10:28PM 41.0870 -72.5880 227° Southwest 387 445 20,000  Level FlightAware
10:28PM 41.0310 -72.6640 226° Southwest 391 450 20,000  Level FlightAware
10:29PM 40.9897 -72.7202 226° Southwest 396 456 20,000  Level FlightAware ADS-B
10:30PM 40.9180 -72.8230 227° Southwest 395 455 20,000  Level FlightAware
10:30PM 40.8964 -72.8575 230° Southwest 396 456 20,000  Level FlightAware ADS-B
10:31PM 40.7979 -72.9542 217° Southwest 397 457 20,000  Level FlightAware ADS-B
10:32PM 40.7474 -72.9869 206° Southwest 397 457 20,000  Level FlightAware ADS-B
10:32PM 40.6967 -73.0196 206° Southwest 395 455 20,000  Level FlightAware ADS-B
10:33PM 40.6306 -73.0627 206° Southwest 394 453 20,000  Level FlightAware ADS-B
10:33PM 40.5808 -73.0953 206° Southwest 393 452 20,000  Level FlightAware ADS-B
10:34PM 40.5290 -73.1296 207° Southwest 392 451 20,000  Level FlightAware ADS-B
10:34PM 40.4797 -73.1626 207° Southwest 391 450 20,000  Level FlightAware ADS-B
10:35PM 40.4236 -73.2004 207° Southwest 390 449 20,000  Level FlightAware ADS-B
10:36PM 40.3641 -73.2404 207° Southwest 390 449 20,000 -120 Level FlightAware ADS-B
10:36PM 40.3140 -73.2739 207° Southwest 386 444 19,900 -780 Descending FlightAware ADS-B
10:37PM 40.2657 -73.3060 207° Southwest 386 444 19,200 -1,380 Descending FlightAware ADS-B
10:37PM 40.2148 -73.3399 207° Southwest 382 440 18,500 -1,080 Descending FlightAware ADS-B
10:38PM 40.1670 -73.3713 207° Southwest 375 432 18,100 -960 Descending FlightAware ADS-B
10:38PM 40.1427 -73.3861 205° Southwest 375 432 17,800 -1,140 Descending FlightAware ADS-B
10:38PM 40.1312 -73.3912 199° South 376 433 17,700 -1,140 Descending FlightAware ADS-B
10:39PM 40.0806 -73.4086 195° South 376 433 17,100 -1,260 Descending FlightAware ADS-B
10:39PM 40.0749 -73.4105 194° South 376 433 17,000 -1,080 Descending FlightAware ADS-B
10:39PM 40.0185 -73.4363 199° South 373 429 16,400 -1,200 Descending FlightAware ADS-B
10:39PM 40.0085 -73.4445 212° Southwest 361 415 16,200 -1,440 Descending FlightAware ADS-B
10:39PM 39.9997 -73.4530 216° Southwest 359 413 16,100 -840 Descending FlightAware ADS-B
10:40PM 39.9804 -73.4777 224° Southwest 354 407 15,900 -300 Descending FlightAware ADS-B
10:40PM 39.9477 -73.5259 229° Southwest 354 407 15,900  Level FlightAware ADS-B
10:41PM 39.8962 -73.6023 229° Southwest 367 422 15,900  Level FlightAware ADS-B
10:42PM 39.8597 -73.6556 228° Southwest 364 419 15,900  Level FlightAware ADS-B
10:42PM 39.8236 -73.7079 228° Southwest 364 419 15,900  Level FlightAware ADS-B
10:43PM 39.7879 -73.7593 228° Southwest 354 407 15,900  Level FlightAware ADS-B
10:43PM 39.7524 -73.8103 228° Southwest 349 402 15,900  Level FlightAware ADS-B
10:44PM 39.7191 -73.8585 228° Southwest 348 400 15,900  Level FlightAware ADS-B
10:44PM 39.6865 -73.9051 228° Southwest 351 404 15,900  Level FlightAware ADS-B
10:45PM 39.6534 -73.9532 228° Southwest 351 404 15,900  Level FlightAware ADS-B
10:45PM 39.6200 -74.0016 228° Southwest 351 404 15,900 -120 Level FlightAware ADS-B
10:46PM 39.5864 -74.0502 228° Southwest 359 413 15,800 -900 Descending FlightAware ADS-B
10:46PM 39.5534 -74.0978 228° Southwest 350 403 15,000 -1,800 Descending FlightAware ADS-B
10:46PM 39.5431 -74.1134 229° Southwest 347 399 14,600 -2,400 Descending FlightAware ADS-B
10:47PM 39.5348 -74.1306 238° Southwest 344 396 14,200 -1,920 Descending FlightAware ADS-B
10:47PM 39.5309 -74.1419 246° West 343 395 14,100 -840 Descending FlightAware ADS-B
10:47PM 39.5267 -74.1601 253° West 343 395 14,000 -480 Descending FlightAware ADS-B
10:47PM 39.5247 -74.1929 265° West 343 395 13,900 -540 Descending FlightAware ADS-B
10:48PM 39.5254 -74.2559 271° West 336 387 13,600 -1,380 Descending FlightAware ADS-B
10:48PM 39.5271 -74.3402 272° West 338 389 12,300 -1,620 Descending FlightAware ADS-B
10:49PM 39.5280 -74.4037 271° West 337 388 11,700 -1,080 Descending FlightAware ADS-B
10:49PM 39.5289 -74.4682 271° West 328 377 11,200 -1,020 Descending FlightAware ADS-B
10:50PM 39.5301 -74.5367 271° West 307 353 10,600 -900 Descending FlightAware ADS-B
10:50PM 39.5311 -74.5934 271° West 284 327 10,200 -780 Descending FlightAware ADS-B
10:51PM 39.5316 -74.6202 271° West 275 316 10,000 -1,200 Descending FlightAware ADS-B
10:51PM 39.5321 -74.6521 271° West 271 312 9,500 -1,500 Descending FlightAware ADS-B
10:51PM 39.5325 -74.6775 271° West 269 310 9,100 -1,200 Descending FlightAware ADS-B
10:52PM 39.5329 -74.7018 271° West 271 312 8,900 -420 Descending FlightAware ADS-B
10:52PM 39.5333 -74.7264 271° West 270 311 8,900  Level FlightAware ADS-B
10:52PM 39.5337 -74.7513 271° West 268 308 8,900  Level FlightAware ADS-B
10:52PM 39.5341 -74.7761 271° West 267 307 8,900  Level FlightAware ADS-B
10:53PM 39.5343 -74.8001 271° West 268 308 8,900  Level FlightAware ADS-B
10:53PM 39.5345 -74.8253 271° West 268 308 8,900  Level FlightAware ADS-B
10:53PM 39.5348 -74.8507 271° West 269 310 8,900  Level FlightAware ADS-B
10:53PM 39.5350 -74.8757 271° West 269 310 8,900  Level FlightAware ADS-B
10:54PM 39.5352 -74.8998 271° West 268 308 8,900  Level FlightAware ADS-B
10:54PM 39.5354 -74.9240 271° West 268 308 8,900 -300 Level FlightAware ADS-B
10:54PM 39.5358 -74.9374 272° West 266 306 8,800 -1,140 Descending FlightAware ADS-B
10:54PM 39.5373 -74.9486 280° West 265 305 8,600 -1,680 Descending FlightAware ADS-B
10:54PM 39.5387 -74.9551 286° West 265 305 8,500 -1,380 Descending FlightAware ADS-B
10:54PM 39.5411 -74.9623 293° West 264 304 8,400 -1,500 Descending FlightAware ADS-B
10:54PM 39.5429 -74.9669 297° West 265 305 8,300 -1,500 Descending FlightAware ADS-B
10:54PM 39.5461 -74.9729 305° West 266 306 8,200 -1,200 Descending FlightAware ADS-B
10:55PM 39.5497 -74.9785 310° West 266 306 8,100 -1,200 Descending FlightAware ADS-B
10:55PM 39.5545 -74.9841 318° Northwest 267 307 8,000 -1,500 Descending FlightAware ADS-B
10:55PM 39.5579 -74.9874 323° Northwest 269 310 7,900 -2,040 Descending FlightAware ADS-B
10:55PM 39.5613 -74.9900 329° Northwest 269 310 7,800 -1,740 Descending FlightAware ADS-B
10:55PM 39.5653 -74.9926 333° Northwest 270 311 7,700 -1,500 Descending FlightAware ADS-B
10:55PM 39.5703 -74.9949 340° North 271 312 7,600 -1,380 Descending FlightAware ADS-B
10:55PM 39.5762 -74.9970 345° North 272 313 7,500 -1,440 Descending FlightAware ADS-B
10:55PM 39.5957 -75.0028 347° North 273 314 7,100 -1,560 Descending FlightAware ADS-B
10:55PM 39.6145 -75.0079 348° North 272 313 6,700 -1,440 Descending FlightAware ADS-B
10:56PM 39.6331 -75.0130 348° North 272 313 6,400 -1,320 Descending FlightAware ADS-B
10:56PM 39.6535 -75.0188 348° North 272 313 6,000 -1,020 Descending FlightAware ADS-B
10:56PM 39.6695 -75.0234 348° North 274 315 5,900 -480 Descending FlightAware ADS-B
10:56PM 39.6883 -75.0289 347° North 271 312 5,800 -780 Descending FlightAware ADS-B
10:57PM 39.7076 -75.0344 348° North 269 310 5,500 -1,200 Descending FlightAware ADS-B
10:57PM 39.7131 -75.0354 352° North 270 311 5,400 -1,200 Descending FlightAware ADS-B
10:57PM 39.7208 -75.0354 360° North 270 311 5,300 -1,380 Descending FlightAware ADS-B
10:57PM 39.7246 -75.0348 North 271 312 5,200 -1,500 Descending FlightAware ADS-B
10:57PM 39.7300 -75.0332 13° North 272 313 5,100 -1,140 Descending FlightAware ADS-B
10:57PM 39.7374 -75.0299 19° North 272 313 5,000 -1,200 Descending FlightAware ADS-B
10:57PM 39.7424 -75.0274 21° North 272 313 4,900 -1,140 Descending FlightAware ADS-B
10:57PM 39.7635 -75.0161 22° Northeast 268 308 4,600 -900 Descending FlightAware ADS-B
10:58PM 39.7816 -75.0062 23° Northeast 262 302 4,400 -600 Descending FlightAware ADS-B
10:58PM 39.7980 -74.9971 23° Northeast 254 292 4,300 -480 Descending FlightAware ADS-B
10:58PM 39.8259 -74.9817 23° Northeast 242 278 4,100 -600 Descending FlightAware ADS-B
10:59PM 39.8395 -74.9742 23° Northeast 236 272 3,900 -480 Descending FlightAware ADS-B
10:59PM 39.8528 -74.9669 23° Northeast 227 261 3,900  Level FlightAware ADS-B
10:59PM 39.8672 -74.9588 23° Northeast 217 250 3,900 -240 Level FlightAware ADS-B
10:59PM 39.8819 -74.9506 23° Northeast 212 244 3,800 -600 Descending FlightAware ADS-B
10:59PM 39.8871 -74.9478 22° Northeast 210 242 3,700 -1,380 Descending FlightAware ADS-B
11:00PM 39.8902 -74.9465 18° North 209 241 3,600 -2,040 Descending FlightAware ADS-B
11:00PM 39.8933 -74.9457 11° North 206 237 3,500 -1,020 Descending FlightAware ADS-B
11:00PM 39.8961 -74.9454 North 204 235 3,500 -1,500 Level FlightAware ADS-B
11:00PM 39.9002 -74.9457 357° North 200 230 3,300 -1,380 Descending FlightAware ADS-B
11:00PM 39.9039 -74.9470 345° North 196 226 3,300 -900 Level FlightAware ADS-B
11:00PM 39.9067 -74.9486 336° Northwest 193 222 3,200 -1,020 Descending FlightAware ADS-B
11:00PM 39.9090 -74.9504 329° Northwest 189 217 3,200 -900 Level FlightAware ADS-B
11:00PM 39.9114 -74.9531 319° Northwest 185 213 3,100 -900 Descending FlightAware ADS-B
11:00PM 39.9134 -74.9561 311° West 182 209 3,100  Level FlightAware ADS-B
11:00PM 39.9152 -74.9596 304° West 180 207 3,100 -720 Level FlightAware ADS-B
11:00PM 39.9171 -74.9644 297° West 177 204 3,000 -720 Descending FlightAware ADS-B
11:00PM 39.9180 -74.9678 289° West 175 201 3,000  Level FlightAware ADS-B
11:00PM 39.9188 -74.9713 287° West 174 200 3,000 -600 Level FlightAware ADS-B
11:00PM 39.9197 -74.9789 279° West 172 198 2,900 -600 Descending FlightAware ADS-B
11:00PM 39.9198 -74.9823 272° West 171 197 2,900  Level FlightAware ADS-B
11:01PM 39.9198 -74.9862 270° West 170 196 2,900  Level FlightAware ADS-B
11:01PM 39.9192 -74.9949 265° West 168 193 2,900  Level FlightAware ADS-B
11:01PM 39.9182 -75.0035 261° West 167 192 2,900  Level FlightAware ADS-B
11:01PM 39.9173 -75.0099 260° West 167 192 2,900  Level FlightAware ADS-B
11:01PM 39.9159 -75.0178 257° West 166 191 2,900 -420 Level FlightAware ADS-B
11:01PM 39.9111 -75.0425 256° West 169 194 2,700 -780 Descending FlightAware ADS-B
11:02PM 39.9098 -75.0492 256° West 166 191 2,500 -1,140 Descending FlightAware ADS-B
11:02PM 39.9070 -75.0634 256° West 157 181 2,300 -840 Descending FlightAware ADS-B
11:02PM 39.9043 -75.0768 255° West 146 168 2,100 -780 Descending FlightAware ADS-B
11:02PM 39.9017 -75.0899 255° West 134 154 1,900 -660 Descending FlightAware ADS-B
11:03PM 39.8997 -75.0995 255° West 125 144 1,800 -480 Descending FlightAware ADS-B
11:03PM 39.8980 -75.1086 256° West 123 142 1,700 -600 Descending FlightAware ADS-B
11:03PM 39.8956 -75.1206 255° West 122 140 1,500 -660 Descending FlightAware ADS-B
11:03PM 39.8939 -75.1284 254° West 121 139 1,400 -720 Descending FlightAware ADS-B
11:04PM 39.8917 -75.1396 256° West 113 130 1,200 -600 Descending FlightAware ADS-B
11:04PM 39.8899 -75.1490 256° West 104 120 1,100 -600 Descending FlightAware ADS-B
11:04PM 39.8881 -75.1579 255° West 105 121 900 -660 Descending FlightAware ADS-B
11:04PM 39.8864 -75.1669 256° West 107 123 800 -300 Descending FlightAware ADS-B
11:04PM 39.8856 -75.1706 254° West 107 123 800 -600 Level FlightAware ADS-B
11:05PM 39.8836 -75.1808 256° West 110 127 600 -720 Descending FlightAware ADS-B
11:05PM 39.8815 -75.1922 257° West 109 125 400 -480 Descending FlightAware ADS-B
11:05PM 39.8803 -75.1983 256° West 111 128 400 -180 Level FlightAware ADS-B
11:06PM 39.8780 -75.2130 258° West 108 124 300 -240 Descending FlightAware